Time;durP1;ratioP1;P1;durP2;ratioP2;P2;SDS_P1;SDS_P2;PMS_P1;PMS_P2;Temp;Humidity;BMP_temperature;BMP_pressure;BME280_temperature;BME280_humidity;BME280_pressure;Samples;Min_cycle;Max_cycle;Signal;HPM_P1;HPM_P2
2021/03/12 00:00:54;;;;;;;65.15;61.80;;;7.40;99.90;;;;;;5003695;28;20080;-69
2021/03/12 00:03:30;;;;;;;86.38;82.00;;;7.40;99.90;;;;;;4997178;28;20370;-70
2021/03/12 00:06:00;;;;;;;50.45;47.22;;;7.40;99.90;;;;;;5000094;28;20466;-69
2021/03/12 00:08:30;;;;;;;;;;;7.50;99.90;;;;;;5002853;28;20050;-70
2021/03/12 00:10:58;;;;;;;78.72;74.35;;;7.40;99.90;;;;;;5003203;28;19922;-70
2021/03/12 00:13:25;;;;;;;59.90;56.67;;;7.40;99.90;;;;;;5003414;28;20133;-69
2021/03/12 00:15:52;;;;;;;44.38;41.78;;;7.50;99.90;;;;;;5006446;28;20095;-69
2021/03/12 00:18:23;;;;;;;117.13;109.05;;;7.50;99.90;;;;;;5009119;28;20049;-69
2021/03/12 00:20:49;;;;;;;113.85;108.00;;;7.50;99.90;;;;;;5008319;28;20045;-69
2021/03/12 00:23:15;;;;;;;70.95;67.15;;;7.50;99.90;;;;;;5008156;28;20041;-69
2021/03/12 00:25:44;;;;;;;92.28;87.63;;;7.40;99.90;;;;;;5006317;28;20045;-69
2021/03/12 00:28:11;;;;;;;70.60;66.82;;;7.40;99.90;;;;;;5004546;28;20046;-69
2021/03/12 00:30:39;;;;;;;56.42;53.25;;;7.40;99.90;;;;;;5004675;28;20051;-70
2021/03/12 00:33:07;;;;;;;118.80;113.00;;;7.40;99.90;;;;;;5006968;28;20459;-69
2021/03/12 00:35:38;;;;;;;92.85;87.78;;;7.40;99.90;;;;;;5005084;28;20050;-70
2021/03/12 00:38:05;;;;;;;60.03;56.95;;;7.40;99.90;;;;;;5007050;28;20081;-70
2021/03/12 00:40:47;;;;;;;64.32;61.03;;;7.40;99.90;;;;;;5008649;28;20407;-70
2021/03/12 00:43:14;;;;;;;71.85;68.20;;;7.40;99.90;;;;;;5007630;28;20129;-69
2021/03/12 00:45:44;;;;;;;159.10;150.07;;;7.40;99.90;;;;;;5003130;28;20052;-69
2021/03/12 00:48:10;;;;;;;103.82;98.53;;;7.40;99.90;;;;;;5007125;28;20080;-69
2021/03/12 00:50:38;;;;;;;112.82;106.45;;;7.30;99.90;;;;;;5003140;28;20429;-70
2021/03/12 00:53:05;;;;;;;72.30;68.55;;;7.30;99.90;;;;;;5007962;28;20046;-70
2021/03/12 00:55:32;;;;;;;61.25;58.17;;;7.30;99.90;;;;;;5005807;28;20046;-70
2021/03/12 00:57:59;;;;;;;230.15;218.43;;;7.30;99.90;;;;;;5003579;28;20056;-69
2021/03/12 01:00:28;;;;;;;82.45;78.22;;;7.30;99.90;;;;;;5004252;28;20058;-70
2021/03/12 01:02:54;;;;;;;53.28;50.53;;;7.30;99.90;;;;;;5006210;28;20046;-70
2021/03/12 01:05:21;;;;;;;255.20;241.18;;;7.30;99.90;;;;;;5005785;28;20050;-70
2021/03/12 01:07:48;;;;;;;66.55;63.03;;;7.30;99.90;;;;;;5005031;28;20081;-69
2021/03/12 01:10:15;;;;;;;107.47;102.18;;;7.30;99.90;;;;;;5007923;28;20053;-69
2021/03/12 01:12:42;;;;;;;67.53;64.10;;;7.30;99.90;;;;;;5005589;28;20435;-70
2021/03/12 01:15:12;;;;;;;57.10;54.08;;;7.30;99.90;;;;;;5002845;28;20046;-70
2021/03/12 01:17:39;;;;;;;121.88;115.72;;;7.30;99.90;;;;;;5001839;28;20045;-70
2021/03/12 01:20:21;;;;;;;79.32;75.32;;;7.30;99.90;;;;;;5006381;28;20057;-70
2021/03/12 01:22:48;;;;;;;65.88;62.38;;;7.30;99.90;;;;;;5005635;28;20054;-70
2021/03/12 01:25:18;;;;;;;112.57;106.18;;;7.30;99.90;;;;;;5003268;28;20050;-69
2021/03/12 01:27:46;;;;;;;57.15;54.33;;;7.30;99.90;;;;;;5007167;28;20086;-69
2021/03/12 01:30:12;;;;;;;101.32;96.03;;;7.20;99.90;;;;;;5002898;28;20042;-69
2021/03/12 01:32:39;;;;;;;97.60;92.50;;;7.20;99.90;;;;;;5008045;28;20050;-70
2021/03/12 01:35:07;;;;;;;102.63;97.50;;;7.20;99.90;;;;;;5009686;28;20054;-69
2021/03/12 01:37:33;;;;;;;154.43;146.05;;;7.20;99.90;;;;;;5006473;28;20087;-69
2021/03/12 01:40:00;;;;;;;134.80;128.13;;;7.20;99.90;;;;;;5006270;28;20057;-69
2021/03/12 01:42:46;;;;;;;120.50;114.20;;;7.20;99.90;;;;;;5007827;28;20350;-70
2021/03/12 01:45:21;;;;;;;53.67;50.40;;;7.10;99.90;;;;;;5003411;28;20097;-69
2021/03/12 01:47:49;;;;;;;53.35;50.17;;;7.10;99.90;;;;;;5005038;28;20172;-70
2021/03/12 01:50:16;;;;;;;61.92;58.72;;;7.10;99.90;;;;;;5005367;28;20478;-69
2021/03/12 01:52:43;;;;;;;57.25;54.10;;;7.10;99.90;;;;;;5001953;28;20055;-69
2021/03/12 01:55:31;;;;;;;78.78;74.30;;;7.10;99.90;;;;;;5005232;28;20088;-69
2021/03/12 01:57:58;;;;;;;47.45;44.75;;;7.10;99.90;;;;;;5099781;27;20050;-69
2021/03/12 02:00:27;;;;;;;81.63;77.40;;;7.00;99.90;;;;;;5005895;28;20145;-69
2021/03/12 02:02:55;;;;;;;55.42;52.17;;;7.10;99.90;;;;;;5002912;28;20164;-70
2021/03/12 02:05:21;;;;;;;57.47;53.92;;;7.10;99.90;;;;;;5009737;28;20042;-69
2021/03/12 02:07:48;;;;;;;82.15;78.22;;;7.10;99.90;;;;;;5004537;28;20088;-70
2021/03/12 02:10:20;;;;;;;159.70;150.73;;;7.10;99.90;;;;;;5005788;28;20052;-69
2021/03/12 02:13:15;;;;;;;102.22;97.03;;;7.10;99.90;;;;;;5001799;28;20050;-69
2021/03/12 02:15:58;;;;;;;48.80;46.20;;;7.10;99.90;;;;;;5004300;28;20129;-69
2021/03/12 02:18:50;;;;;;;52.80;50.22;;;7.10;99.90;;;;;;5005670;28;20122;-69
2021/03/12 02:21:39;;;;;;;48.80;45.70;;;7.10;99.90;;;;;;5003562;28;20052;-70
2021/03/12 02:24:27;;;;;;;67.78;64.13;;;7.10;99.90;;;;;;5106334;27;20449;-70
2021/03/12 02:27:05;;;;;;;50.38;47.72;;;7.10;99.90;;;;;;4999917;28;20070;-70
2021/03/12 02:29:34;;;;;;;71.00;67.25;;;7.00;99.90;;;;;;4996456;28;20052;-69
2021/03/12 02:32:02;;;;;;;;;;;7.00;99.90;;;;;;5001231;28;20046;-70
2021/03/12 02:34:37;;;;;;;42.17;39.95;;;7.00;99.90;;;;;;5002088;28;19928;-73
2021/03/12 02:37:06;;;;;;;54.40;51.42;;;7.00;99.90;;;;;;5003940;28;20106;-70
2021/03/12 02:39:35;;;;;;;52.47;49.33;;;7.00;99.90;;;;;;5002603;28;20060;-70
2021/03/12 02:42:03;;;;;;;58.45;54.92;;;7.00;99.90;;;;;;5003964;28;20127;-70
2021/03/12 02:44:32;;;;;;;90.65;86.15;;;7.00;99.90;;;;;;5003832;28;20045;-69
2021/03/12 02:47:18;;;;;;;56.28;53.10;;;7.00;99.90;;;;;;5002424;28;20052;-70
2021/03/12 02:49:47;;;;;;;70.80;67.32;;;7.00;99.90;;;;;;5002527;28;20060;-69
2021/03/12 02:52:13;;;;;;;80.80;76.43;;;7.00;99.90;;;;;;5008695;28;20333;-70
2021/03/12 02:54:43;;;;;;;73.20;69.43;;;7.00;99.90;;;;;;5004129;28;20305;-69
2021/03/12 02:57:11;;;;;;;58.35;55.25;;;7.00;99.90;;;;;;5004127;28;20481;-70
2021/03/12 02:59:37;;;;;;;46.47;43.95;;;7.00;99.90;;;;;;5005276;28;20046;-70
2021/03/12 03:02:04;;;;;;;155.70;147.85;;;7.00;99.90;;;;;;5001818;28;20065;-69
2021/03/12 03:04:31;;;;;;;52.80;49.92;;;6.90;99.90;;;;;;5008096;28;20065;-69
2021/03/12 03:06:58;;;;;;;68.10;64.55;;;6.90;99.90;;;;;;5004631;28;20048;-69
2021/03/12 03:09:26;;;;;;;49.45;46.30;;;6.90;99.90;;;;;;5005600;28;20064;-69
2021/03/12 03:11:52;;;;;;;49.28;46.70;;;6.80;99.90;;;;;;5004381;28;20042;-70
2021/03/12 03:14:19;;;;;;;46.03;43.70;;;6.80;99.90;;;;;;5002778;28;20046;-69
2021/03/12 03:16:47;;;;;;;42.80;40.45;;;6.70;99.90;;;;;;5004337;28;20042;-70
2021/03/12 03:19:14;;;;;;;45.55;43.05;;;6.60;99.90;;;;;;5005881;28;20046;-70
2021/03/12 03:21:47;;;;;;;45.80;43.42;;;6.50;99.90;;;;;;5002815;28;20050;-69
2021/03/12 03:24:13;;;;;;;43.67;40.95;;;6.40;99.90;;;;;;5000451;28;20053;-69
2021/03/12 03:26:40;;;;;;;55.97;52.80;;;6.40;99.90;;;;;;5003680;28;20429;-69
2021/03/12 03:29:06;;;;;;;47.53;44.85;;;6.30;99.90;;;;;;5002585;28;20057;-69
2021/03/12 03:31:33;;;;;;;45.55;43.03;;;6.20;99.90;;;;;;5006345;28;20049;-69
2021/03/12 03:33:59;;;;;;;44.95;42.35;;;6.10;99.90;;;;;;5002887;28;20054;-70
2021/03/12 03:36:25;;;;;;;41.30;38.63;;;6.10;99.90;;;;;;4999659;28;20057;-69
2021/03/12 03:38:51;;;;;;;39.63;37.38;;;6.00;99.90;;;;;;5004967;28;20041;-69
2021/03/12 03:41:19;;;;;;;40.83;38.22;;;6.00;99.90;;;;;;5004194;28;20140;-69
2021/03/12 03:43:49;;;;;;;41.17;38.83;;;5.90;99.90;;;;;;5004687;28;20108;-69
2021/03/12 03:46:16;;;;;;;41.25;39.03;;;5.90;99.90;;;;;;5001156;28;20151;-69
2021/03/12 03:48:44;;;;;;;62.35;58.90;;;5.80;99.90;;;;;;5003733;28;20080;-69
2021/03/12 03:51:13;;;;;;;39.20;37.05;;;5.70;99.90;;;;;;5004990;28;20050;-69
2021/03/12 03:53:41;;;;;;;38.60;36.60;;;5.70;99.90;;;;;;5004936;28;21059;-70
2021/03/12 03:56:10;;;;;;;41.15;38.58;;;5.70;99.90;;;;;;5004896;28;20448;-69
2021/03/12 03:58:38;;;;;;;54.78;51.85;;;5.70;99.90;;;;;;5002256;28;20050;-69
2021/03/12 04:01:06;;;;;;;57.15;54.10;;;5.60;99.90;;;;;;5007479;28;20140;-69
2021/03/12 04:03:34;;;;;;;45.03;42.67;;;5.60;99.90;;;;;;5006563;28;20060;-69
2021/03/12 04:14:12;;;;;;;36.80;34.70;;;5.50;99.90;;;;;;5004152;28;20040;-69
2021/03/12 04:16:39;;;;;;;38.83;36.67;;;5.50;99.90;;;;;;5006316;28;20042;-69
2021/03/12 04:19:07;;;;;;;72.22;68.38;;;5.50;99.90;;;;;;5006651;28;20156;-69
2021/03/12 04:21:34;;;;;;;47.13;44.70;;;5.50;99.90;;;;;;5007207;28;20060;-69
2021/03/12 04:24:01;;;;;;;42.08;39.53;;;5.50;99.90;;;;;;5002340;28;20308;-69
2021/03/12 04:26:28;;;;;;;42.30;39.95;;;5.40;99.90;;;;;;5006432;28;20050;-69
2021/03/12 04:28:54;;;;;;;42.10;39.80;;;5.50;99.90;;;;;;5003672;28;20133;-69
2021/03/12 04:31:21;;;;;;;42.42;40.08;;;5.50;99.90;;;;;;5006121;28;20522;-69
2021/03/12 04:33:48;;;;;;;64.47;60.95;;;5.40;99.90;;;;;;5096102;27;20115;-69
2021/03/12 04:36:15;;;;;;;56.72;54.05;;;5.40;99.90;;;;;;5004380;28;20141;-69
2021/03/12 04:38:43;;;;;;;57.47;54.60;;;5.40;99.90;;;;;;5004738;28;20053;-69
2021/03/12 04:41:10;;;;;;;43.40;41.00;;;5.40;99.90;;;;;;5002941;28;20136;-69
2021/03/12 04:43:39;;;;;;;39.65;37.40;;;5.40;99.90;;;;;;5005664;28;20053;-69
2021/03/12 04:46:06;;;;;;;142.60;135.07;;;5.30;99.90;;;;;;5003536;28;20126;-69
2021/03/12 04:48:33;;;;;;;63.38;60.17;;;5.40;99.90;;;;;;5005825;28;20401;-69
2021/03/12 04:51:01;;;;;;;51.65;48.67;;;5.30;99.90;;;;;;5005811;28;20419;-69
2021/03/12 04:53:31;;;;;;;55.65;52.55;;;5.30;99.90;;;;;;5004959;28;20045;-69
2021/03/12 04:55:58;;;;;;;42.90;40.75;;;5.30;99.90;;;;;;5008305;28;20521;-69
2021/03/12 04:58:24;;;;;;;42.80;40.28;;;5.30;99.90;;;;;;5004319;28;20308;-69
2021/03/12 05:00:52;;;;;;;66.30;62.60;;;5.40;99.90;;;;;;5005155;28;20054;-69
2021/03/12 05:03:19;;;;;;;46.50;44.17;;;5.30;99.90;;;;;;5002760;28;20467;-69
2021/03/12 05:05:47;;;;;;;84.75;79.63;;;5.40;99.90;;;;;;5002545;28;20054;-69
2021/03/12 05:08:14;;;;;;;49.53;46.78;;;5.30;99.90;;;;;;5007471;28;20049;-69
2021/03/12 05:11:01;;;;;;;39.63;37.25;;;5.30;99.90;;;;;;5007473;28;20041;-69
2021/03/12 05:13:27;;;;;;;33.70;31.75;;;5.30;99.90;;;;;;5007194;28;20054;-69
2021/03/12 05:15:53;;;;;;;44.85;42.35;;;5.30;99.90;;;;;;5001451;28;20042;-69
2021/03/12 05:18:20;;;;;;;45.05;42.65;;;5.30;99.90;;;;;;5017508;28;20062;-69
2021/03/12 05:20:47;;;;;;;62.30;58.83;;;5.30;99.90;;;;;;4999277;28;20053;-69
2021/03/12 05:23:15;;;;;;;47.60;45.22;;;5.30;99.90;;;;;;5007928;28;20046;-69
2021/03/12 05:25:42;;;;;;;49.00;46.10;;;5.20;99.90;;;;;;5000849;28;20401;-69
2021/03/12 05:28:08;;;;;;;49.38;46.88;;;5.30;99.90;;;;;;5005053;28;20046;-69
2021/03/12 05:30:36;;;;;;;36.10;34.17;;;5.30;99.90;;;;;;5006060;28;20085;-69
2021/03/12 05:33:04;;;;;;;33.40;31.60;;;5.20;99.90;;;;;;5005501;28;20042;-69
2021/03/12 05:35:30;;;;;;;44.30;41.92;;;5.20;99.90;;;;;;5003578;28;20046;-69
2021/03/12 05:37:56;;;;;;;59.65;56.45;;;5.20;99.90;;;;;;5004713;28;20045;-70
2021/03/12 05:40:23;;;;;;;35.50;33.47;;;5.30;99.90;;;;;;4994300;28;20055;-69
2021/03/12 05:42:51;;;;;;;37.58;35.45;;;5.30;99.90;;;;;;5001748;28;20157;-69
2021/03/12 05:45:20;;;;;;;36.50;34.50;;;5.30;99.90;;;;;;5004159;28;20768;-69
2021/03/12 05:47:47;;;;;;;35.13;33.22;;;5.30;99.90;;;;;;5004165;28;20056;-69
2021/03/12 05:50:14;;;;;;;43.55;41.00;;;5.30;99.90;;;;;;5001656;28;20509;-69
2021/03/12 05:52:44;;;;;;;37.38;35.30;;;5.30;99.90;;;;;;5001732;28;20056;-69
2021/03/12 05:55:10;;;;;;;40.60;38.47;;;5.30;99.90;;;;;;5003380;28;20413;-69
2021/03/12 05:57:37;;;;;;;86.28;82.03;;;5.30;99.90;;;;;;5004274;28;20500;-69
2021/03/12 06:00:06;;;;;;;34.90;33.05;;;5.30;99.90;;;;;;5000835;28;20213;-69
2021/03/12 06:02:32;;;;;;;38.63;36.00;;;5.30;99.90;;;;;;5101924;27;20461;-69
2021/03/12 06:04:59;;;;;;;44.72;42.00;;;5.30;99.90;;;;;;5009789;28;20070;-69
2021/03/12 06:07:25;;;;;;;51.47;48.00;;;5.30;99.90;;;;;;5005291;28;20061;-69
2021/03/12 06:09:51;;;;;;;61.15;57.92;;;5.30;99.90;;;;;;5002544;28;20065;-69
2021/03/12 06:12:18;;;;;;;52.15;48.97;;;5.20;99.90;;;;;;5096849;27;20134;-69
2021/03/12 06:14:56;;;;;;;95.70;90.22;;;5.20;99.90;;;;;;5002753;28;20056;-69
2021/03/12 06:17:38;;;;;;;44.22;41.85;;;5.20;99.90;;;;;;4995376;28;20937;-69
2021/03/12 06:20:08;;;;;;;48.78;45.95;;;5.20;99.90;;;;;;5082786;27;20085;-69
2021/03/12 06:22:35;;;;;;;36.88;34.53;;;5.20;99.90;;;;;;4998161;28;20110;-69
2021/03/12 06:25:13;;;;;;;63.03;59.53;;;5.20;99.90;;;;;;4998592;28;20090;-69
2021/03/12 06:27:39;;;;;;;60.10;57.08;;;5.20;99.90;;;;;;4996648;28;20140;-69
2021/03/12 06:30:06;;;;;;;112.13;105.45;;;5.10;99.90;;;;;;4997609;28;20092;-69
2021/03/12 06:32:56;;;;;;;49.40;46.80;;;5.10;99.90;;;;;;4991250;28;20057;-69
2021/03/12 06:35:25;;;;;;;38.88;36.38;;;5.10;99.90;;;;;;4991086;28;20094;-69
2021/03/12 06:37:53;;;;;;;56.70;53.78;;;5.10;99.90;;;;;;5089005;27;20484;-69
2021/03/12 06:40:25;;;;;;;44.25;41.95;;;5.10;99.90;;;;;;4995855;28;20146;-69
2021/03/12 06:43:12;;;;;;;60.35;56.85;;;5.10;99.90;;;;;;4995731;28;20790;-69
2021/03/12 06:45:41;;;;;;;95.35;90.13;;;5.10;99.90;;;;;;4993105;28;20054;-69
2021/03/12 06:48:33;;;;;;;104.00;98.30;;;5.10;99.90;;;;;;4994163;28;20058;-69
2021/03/12 06:51:07;;;;;;;47.53;44.55;;;5.10;99.90;;;;;;5090821;27;20516;-69
2021/03/12 06:53:35;;;;;;;36.70;34.60;;;5.20;99.90;;;;;;4986989;28;20057;-69
2021/03/12 06:56:10;;;;;;;44.40;41.80;;;5.20;99.90;;;;;;4992231;28;20517;-69
2021/03/12 06:58:36;;;;;;;53.33;50.60;;;5.30;99.90;;;;;;4990125;28;20124;-69
2021/03/12 07:01:17;;;;;;;66.30;62.88;;;5.30;99.90;;;;;;4992352;28;20045;-69
2021/03/12 07:03:44;;;;;;;63.10;59.63;;;5.40;99.90;;;;;;4995354;28;20050;-69
2021/03/12 07:06:16;;;;;;;83.55;78.93;;;5.40;99.90;;;;;;4980884;28;21548;-69
2021/03/12 07:08:45;;;;;;;60.85;57.83;;;5.50;99.90;;;;;;4993710;28;20412;-69
2021/03/12 07:11:23;;;;;;;38.90;36.63;;;5.60;99.90;;;;;;4996068;28;20081;-69
2021/03/12 07:13:54;;;;;;;79.78;75.03;;;5.60;99.90;;;;;;4991805;28;20061;-69
2021/03/12 07:16:21;;;;;;;197.48;184.30;;;5.70;99.90;;;;;;4990672;28;20042;-69
2021/03/12 07:18:49;;;;;;;44.53;41.78;;;5.70;99.90;;;;;;4998248;28;20581;-69
2021/03/12 07:21:18;;;;;;;104.85;98.75;;;5.70;99.90;;;;;;5089473;27;20058;-69
2021/03/12 07:23:48;;;;;;;118.55;112.22;;;5.70;99.90;;;;;;4986623;28;20052;-69
2021/03/12 07:26:16;;;;;;;51.10;48.35;;;5.70;99.90;;;;;;4994132;28;20049;-69
2021/03/12 07:28:43;;;;;;;58.08;54.72;;;5.70;99.90;;;;;;4996911;28;20045;-69
2021/03/12 07:31:13;;;;;;;109.53;102.93;;;5.70;99.90;;;;;;4994961;28;20046;-69
2021/03/12 07:33:42;;;;;;;126.43;119.28;;;5.80;99.90;;;;;;4992681;28;20050;-69
2021/03/12 07:36:09;;;;;;;;;;;5.80;99.90;;;;;;4994193;28;20042;-69
2021/03/12 07:38:36;;;;;;;101.35;95.40;;;5.80;99.90;;;;;;4991882;28;20382;-69
2021/03/12 07:41:04;;;;;;;42.92;40.17;;;5.80;99.90;;;;;;4994203;28;20130;-69
2021/03/12 07:43:36;;;;;;;99.40;93.90;;;5.90;99.90;;;;;;4997973;28;20053;-69
2021/03/12 07:46:04;;;;;;;162.10;152.18;;;5.90;99.90;;;;;;4997024;28;20041;-69
2021/03/12 07:48:31;;;;;;;102.95;97.43;;;6.00;99.90;;;;;;4998907;28;20107;-69
2021/03/12 07:51:05;;;;;;;81.50;76.32;;;6.00;99.90;;;;;;4999567;28;20058;-69
2021/03/12 07:53:51;;;;;;;114.13;107.22;;;6.10;99.90;;;;;;4997874;28;20060;-69
2021/03/12 07:56:38;;;;;;;64.45;60.75;;;6.20;99.90;;;;;;4996148;28;20098;-70
2021/03/12 07:59:05;;;;;;;119.20;111.85;;;6.30;99.90;;;;;;5001286;28;20121;-69
2021/03/12 08:01:47;;;;;;;85.57;80.82;;;6.30;99.90;;;;;;4997172;28;20046;-69
2021/03/12 08:04:31;;;;;;;66.78;63.17;;;6.40;99.90;;;;;;4998270;28;20156;-69
2021/03/12 08:07:17;;;;;;;220.60;208.60;;;6.50;99.90;;;;;;4998597;28;20485;-69
2021/03/12 08:09:44;;;;;;;124.13;116.82;;;6.60;99.90;;;;;;4995857;28;20052;-69
2021/03/12 08:12:34;;;;;;;96.25;90.07;;;6.80;99.90;;;;;;4994220;28;20050;-70
2021/03/12 08:15:16;;;;;;;144.00;135.73;;;6.90;99.90;;;;;;4999687;28;20061;-69
2021/03/12 08:17:57;;;;;;;183.90;172.00;;;7.00;99.90;;;;;;4997333;28;20103;-69
2021/03/12 08:20:43;;;;;;;81.70;77.40;;;7.10;99.90;;;;;;4994827;28;20050;-69
2021/03/12 08:23:29;;;;;;;182.23;171.82;;;7.20;99.90;;;;;;5001194;28;20049;-69
2021/03/12 08:25:56;;;;;;;109.15;103.30;;;7.30;99.90;;;;;;4996821;28;20042;-67
2021/03/12 08:28:27;;;;;;;71.20;66.70;;;7.40;99.90;;;;;;4998365;28;20065;-69
2021/03/12 08:30:58;;;;;;;69.22;64.95;;;7.40;99.90;;;;;;4998987;28;20106;-69
2021/03/12 08:33:32;;;;;;;111.82;105.72;;;7.50;99.90;;;;;;4997264;28;20050;-69
2021/03/12 08:35:59;;;;;;;95.13;89.57;;;7.60;99.90;;;;;;5006116;28;20102;-69
2021/03/12 08:38:26;;;;;;;341.52;322.25;;;7.80;99.90;;;;;;5001512;28;20085;-69
2021/03/12 08:41:12;;;;;;;128.90;121.22;;;7.90;99.90;;;;;;5002593;28;20132;-69
2021/03/12 08:43:45;;;;;;;100.25;95.07;;;8.00;99.90;;;;;;5015660;27;20050;-70
2021/03/12 08:46:13;;;;;;;360.63;338.52;;;8.10;99.90;;;;;;5005481;28;20132;-70
2021/03/12 08:48:40;;;;;;;98.25;92.28;;;8.10;99.90;;;;;;5001842;28;20057;-70
2021/03/12 08:51:20;;;;;;;;;;;8.10;99.90;;;;;;4998490;28;20049;-69
2021/03/12 08:53:55;;;;;;;103.43;97.10;;;8.10;99.90;;;;;;4999656;28;20333;-69
2021/03/12 08:56:35;;;;;;;157.65;147.95;;;8.00;99.90;;;;;;4997936;28;20469;-70
2021/03/12 08:59:04;;;;;;;368.00;344.00;;;8.00;99.90;;;;;;5000382;28;20054;-70
2021/03/12 09:01:36;;;;;;;103.68;97.18;;;8.00;99.90;;;;;;5002034;28;20157;-69
2021/03/12 09:04:04;;;;;;;104.63;98.88;;;8.00;99.90;;;;;;5006860;28;20052;-69
2021/03/12 09:06:35;;;;;;;368.90;343.98;;;8.10;99.90;;;;;;5005643;28;20076;-69
2021/03/12 09:09:08;;;;;;;113.38;106.47;;;8.10;99.90;;;;;;5001438;28;20058;-69
2021/03/12 09:11:35;;;;;;;103.47;96.90;;;8.00;99.90;;;;;;5100793;27;20408;-70
2021/03/12 09:14:03;;;;;;;60.88;57.17;;;8.00;99.90;;;;;;5000778;28;20054;-69
2021/03/12 09:16:30;;;;;;;222.95;209.27;;;7.90;99.90;;;;;;5006395;28;20048;-69
2021/03/12 09:19:02;;;;;;;251.77;236.85;;;7.90;99.90;;;;;;5003887;28;20045;-69
2021/03/12 09:21:29;;;;;;;346.30;324.13;;;7.80;99.90;;;;;;5001512;28;20042;-69
2021/03/12 09:23:56;;;;;;;69.72;65.60;;;7.80;99.90;;;;;;5002894;28;20086;-69
2021/03/12 09:26:32;;;;;;;123.28;116.32;;;7.90;99.90;;;;;;5003086;28;20093;-69
2021/03/12 09:29:00;;;;;;;142.43;134.43;;;8.00;99.90;;;;;;5002118;28;20123;-69
2021/03/12 09:31:39;;;;;;;295.02;276.25;;;8.10;99.90;;;;;;4998802;28;20072;-69
2021/03/12 09:34:09;;;;;;;169.25;158.65;;;8.10;99.90;;;;;;4996750;28;20094;-69
2021/03/12 09:36:39;;;;;;;158.57;149.35;;;8.10;99.90;;;;;;5001738;28;20049;-69
2021/03/12 09:39:22;;;;;;;234.98;220.05;;;8.10;99.90;;;;;;5002572;28;20046;-69
2021/03/12 09:42:03;;;;;;;116.93;110.35;;;8.20;99.90;;;;;;5002921;28;20045;-69
2021/03/12 09:44:31;;;;;;;128.85;120.68;;;8.20;99.90;;;;;;4994961;28;20050;-69
2021/03/12 09:46:59;;;;;;;90.75;85.47;;;8.20;99.90;;;;;;4999057;28;20066;-69
2021/03/12 09:49:33;;;;;;;110.07;104.10;;;8.30;99.90;;;;;;4999457;28;20054;-69
2021/03/12 09:52:06;;;;;;;194.90;184.02;;;8.30;99.90;;;;;;5001930;28;20074;-69
2021/03/12 09:54:33;;;;;;;376.00;353.67;;;8.20;99.90;;;;;;4999616;28;20524;-69
2021/03/12 09:57:00;;;;;;;98.82;92.93;;;8.20;99.90;;;;;;4997773;28;20061;-69
2021/03/12 09:59:30;;;;;;;289.60;272.40;;;8.20;99.90;;;;;;4991773;28;20385;-69
2021/03/12 10:02:14;;;;;;;407.08;381.60;;;8.20;99.90;;;;;;4998157;28;20046;-69
2021/03/12 10:04:43;;;;;;;193.40;182.48;;;8.00;99.90;;;;;;4996269;28;20139;-69
2021/03/12 10:07:17;;;;;;;122.25;115.55;;;7.90;99.90;;;;;;4999133;28;20111;-69
2021/03/12 10:09:46;;;;;;;106.03;100.25;;;7.70;99.90;;;;;;5000831;28;20047;-69
2021/03/12 10:12:17;;;;;;;231.40;218.38;;;7.50;99.90;;;;;;4999533;28;20089;-68
2021/03/12 10:14:51;;;;;;;119.13;112.38;;;7.40;99.90;;;;;;4994164;28;20169;-68
2021/03/12 10:17:25;;;;;;;568.35;528.05;;;7.20;99.90;;;;;;4996518;28;20168;-68
2021/03/12 10:20:04;;;;;;;167.75;158.68;;;7.00;99.90;;;;;;4997731;28;20115;-67
2021/03/12 10:22:43;;;;;;;91.63;86.53;;;6.90;99.90;;;;;;5090025;27;20064;-68
2021/03/12 10:25:26;;;;;;;225.40;212.63;;;6.80;99.90;;;;;;4996111;28;20058;-67
2021/03/12 10:27:58;;;;;;;80.80;76.00;;;6.80;99.90;;;;;;4994082;28;20462;-68
2021/03/12 10:30:48;;;;;;;96.35;90.82;;;6.80;99.90;;;;;;5081160;27;20060;-67
2021/03/12 10:33:19;;;;;;;89.47;84.25;;;6.80;99.90;;;;;;4994622;28;20114;-68
2021/03/12 10:35:53;;;;;;;365.05;342.85;;;6.80;99.90;;;;;;4992983;28;20121;-68
2021/03/12 10:38:24;;;;;;;103.15;97.47;;;6.80;99.90;;;;;;4993692;28;20042;-68
2021/03/12 10:41:11;;;;;;;228.68;216.50;;;6.90;99.90;;;;;;4992700;28;20053;-68
2021/03/12 10:43:37;;;;;;;561.45;520.90;;;6.90;99.90;;;;;;5002977;28;20155;-69
2021/03/12 10:46:08;;;;;;;170.90;160.13;;;7.00;99.90;;;;;;4992364;28;20065;-68
2021/03/12 10:48:43;;;;;;;132.23;125.10;;;7.10;99.90;;;;;;4993474;28;20065;-68
2021/03/12 10:51:12;;;;;;;372.80;346.83;;;7.20;99.90;;;;;;4997249;28;20115;-68
2021/03/12 10:53:55;;;;;;;217.73;205.23;;;7.30;99.90;;;;;;4999521;28;20111;-68
2021/03/12 10:56:23;;;;;;;119.70;113.22;;;7.50;99.90;;;;;;4994956;28;20064;-68
2021/03/12 10:58:53;;;;;;;87.90;83.18;;;7.60;99.90;;;;;;4996107;28;20513;-68
2021/03/12 11:01:26;;;;;;;140.30;133.07;;;7.60;99.90;;;;;;4994944;28;20133;-68
2021/03/12 11:03:54;;;;;;;266.77;250.20;;;7.60;99.90;;;;;;5003283;28;20090;-68
2021/03/12 11:06:26;;;;;;;111.18;105.13;;;7.60;99.90;;;;;;4993371;28;20600;-68
2021/03/12 11:08:52;;;;;;;233.70;220.77;;;7.50;99.90;;;;;;5095378;27;20099;-68
2021/03/12 11:11:23;;;;;;;181.95;172.32;;;7.60;99.90;;;;;;4992395;28;20128;-68
2021/03/12 11:13:51;;;;;;;299.00;278.88;;;7.60;99.90;;;;;;4989151;28;20057;-68
2021/03/12 11:16:18;;;;;;;106.10;100.35;;;7.70;99.90;;;;;;5001031;28;20071;-69
2021/03/12 11:18:45;;;;;;;308.50;291.40;;;7.80;99.90;;;;;;4997941;28;20481;-68
2021/03/12 11:21:13;;;;;;;316.15;296.05;;;7.80;99.90;;;;;;4996926;28;20477;-69
2021/03/12 11:23:42;;;;;;;107.80;101.60;;;7.80;99.90;;;;;;4991627;28;20050;-68
2021/03/12 11:26:09;;;;;;;105.07;99.55;;;7.70;99.90;;;;;;4984144;28;20064;-68
2021/03/12 11:28:36;;;;;;;121.78;114.53;;;7.80;99.90;;;;;;4996054;28;20532;-68
2021/03/12 11:31:04;;;;;;;299.52;282.98;;;7.80;99.90;;;;;;4999734;28;20533;-69
2021/03/12 11:33:31;;;;;;;105.70;99.82;;;7.70;99.90;;;;;;4992288;28;20878;-69
2021/03/12 11:36:00;;;;;;;169.05;160.48;;;7.80;99.90;;;;;;4993746;28;20060;-69
2021/03/12 11:38:29;;;;;;;160.45;149.02;;;7.80;99.90;;;;;;4993095;28;20056;-69
2021/03/12 11:40:57;;;;;;;223.60;211.70;;;8.00;99.90;;;;;;4995914;28;20034;-68
2021/03/12 11:43:24;;;;;;;189.98;179.43;;;8.00;99.90;;;;;;5091632;27;20479;-69
2021/03/12 11:45:51;;;;;;;217.68;205.85;;;7.90;99.90;;;;;;4994908;28;20122;-69
2021/03/12 11:48:18;;;;;;;339.27;317.45;;;7.80;99.90;;;;;;4996691;28;20053;-68
2021/03/12 11:50:44;;;;;;;140.32;132.50;;;7.70;99.90;;;;;;5000591;28;20465;-69
2021/03/12 11:53:11;;;;;;;183.23;173.25;;;7.60;99.90;;;;;;4997700;28;20140;-68
2021/03/12 11:55:37;;;;;;;161.02;151.88;;;7.60;99.90;;;;;;5000094;28;20114;-68
2021/03/12 11:58:04;;;;;;;83.57;78.82;;;7.70;99.90;;;;;;5002178;28;20050;-68
2021/03/12 12:00:30;;;;;;;224.65;211.93;;;7.70;99.90;;;;;;5005268;28;20137;-69
2021/03/12 12:02:57;;;;;;;188.75;178.98;;;7.80;99.90;;;;;;5000747;28;20481;-68
2021/03/12 12:05:24;;;;;;;89.28;84.28;;;7.90;99.90;;;;;;4994872;28;20054;-68
2021/03/12 12:07:50;;;;;;;233.48;219.52;;;8.00;99.90;;;;;;4997337;28;20485;-68
2021/03/12 12:10:18;;;;;;;144.50;136.45;;;8.10;99.90;;;;;;5001467;28;20042;-68
2021/03/12 12:12:46;;;;;;;261.10;246.90;;;8.10;99.90;;;;;;5009274;28;20069;-69
2021/03/12 12:15:16;;;;;;;122.70;116.07;;;8.20;99.90;;;;;;5003058;28;20082;-68
2021/03/12 12:17:44;;;;;;;198.63;188.13;;;8.30;99.90;;;;;;5000996;28;20066;-68
2021/03/12 12:20:12;;;;;;;271.48;256.50;;;8.40;99.90;;;;;;4999984;28;20129;-68
2021/03/12 12:22:40;;;;;;;465.48;434.15;;;8.40;99.90;;;;;;5004409;28;20136;-68
2021/03/12 12:25:08;;;;;;;155.13;146.88;;;8.40;99.90;;;;;;5005485;28;20133;-68
2021/03/12 12:27:34;;;;;;;500.67;469.50;;;8.50;99.90;;;;;;4999271;28;20062;-69
2021/03/12 12:30:01;;;;;;;188.32;177.85;;;8.60;99.90;;;;;;5002874;28;20050;-69
2021/03/12 12:32:27;;;;;;;288.17;271.80;;;8.70;99.90;;;;;;4993656;28;20171;-68
2021/03/12 12:34:55;;;;;;;299.60;280.55;;;8.70;99.90;;;;;;4995423;28;20053;-68
2021/03/12 12:37:22;;;;;;;152.43;143.57;;;8.90;99.90;;;;;;5001797;28;20531;-69
2021/03/12 12:39:49;;;;;;;248.77;234.77;;;9.00;99.90;;;;;;5005563;28;20049;-69
2021/03/12 12:42:15;;;;;;;151.98;144.43;;;8.90;99.90;;;;;;5093706;27;20494;-69
2021/03/12 12:44:42;;;;;;;103.78;98.60;;;8.90;99.90;;;;;;5005106;28;20073;-69
2021/03/12 12:47:08;;;;;;;167.10;158.30;;;8.80;99.90;;;;;;5004018;28;20077;-69
2021/03/12 12:49:35;;;;;;;298.45;280.55;;;8.70;99.90;;;;;;5001837;28;20493;-69
2021/03/12 12:52:03;;;;;;;257.75;241.82;;;8.60;99.90;;;;;;4999849;28;20523;-69
2021/03/12 12:54:29;;;;;;;178.77;167.50;;;8.50;99.90;;;;;;5000135;28;20150;-69